createdAt,value
2023-04-27T00:02:18.058Z,38.84
2023-04-27T00:04:46.629Z,38.90
2023-04-27T00:07:15.174Z,38.95
2023-04-27T00:09:43.240Z,39.08
2023-04-27T00:12:11.715Z,38.79
2023-04-27T00:14:39.864Z,38.84
2023-04-27T00:17:08.366Z,38.72
2023-04-27T00:19:36.536Z,38.62
2023-04-27T00:22:04.963Z,38.69
2023-04-27T00:24:33.177Z,38.56
2023-04-27T00:27:01.853Z,38.37
2023-04-27T00:29:30.113Z,38.34
2023-04-27T00:31:58.763Z,38.27
2023-04-27T00:34:27.171Z,38.44
2023-04-27T00:36:55.625Z,38.52
2023-04-27T00:39:23.803Z,38.44
2023-04-27T00:41:52.444Z,38.39
2023-04-27T00:44:28.428Z,38.15
2023-04-27T00:46:58.885Z,38.13
2023-04-27T00:49:27.720Z,38.42
2023-04-27T00:51:56.568Z,38.11
2023-04-27T00:54:25.063Z,38.10
2023-04-27T00:56:53.884Z,38.16
2023-04-27T00:59:23.365Z,38.60
2023-04-27T01:01:53.501Z,38.38
2023-04-27T01:04:21.860Z,38.52
2023-04-27T01:06:50.518Z,38.19
2023-04-27T01:09:20.146Z,38.17
2023-04-27T01:11:51.955Z,38.52
2023-04-27T01:14:20.083Z,38.42
2023-04-27T01:16:48.687Z,38.05
2023-04-27T01:19:16.952Z,38.37
2023-04-27T01:21:45.529Z,38.38
2023-04-27T01:24:13.681Z,38.09
2023-04-27T01:26:42.152Z,38.15
2023-04-27T01:29:12.687Z,38.20
2023-04-27T01:31:41.409Z,38.23
2023-04-27T01:34:09.862Z,37.87
2023-04-27T01:36:38.782Z,38.16
2023-04-27T01:39:09.543Z,38.21
2023-04-27T01:41:38.063Z,37.86
2023-04-27T01:44:07.182Z,38.17
2023-04-27T01:46:35.841Z,38.11
2023-04-27T01:49:04.188Z,38.05
2023-04-27T01:51:33.086Z,38.26
2023-04-27T01:54:01.373Z,37.97
2023-04-27T01:56:32.189Z,37.96
2023-04-27T01:59:00.571Z,38.32
2023-04-27T02:01:32.097Z,38.07
2023-04-27T02:04:00.652Z,38.15
2023-04-27T02:06:31.537Z,38.29
2023-04-27T02:08:59.853Z,38.28
2023-04-27T02:11:28.412Z,38.24
2023-04-27T02:13:56.655Z,38.25
2023-04-27T02:16:35.234Z,38.70
2023-04-27T02:19:04.511Z,38.57
2023-04-27T02:21:33.034Z,38.80
2023-04-27T02:24:02.061Z,38.82
2023-04-27T02:26:30.588Z,38.89
2023-04-27T02:28:59.782Z,38.63
2023-04-27T02:31:28.647Z,38.68
2023-04-27T02:33:56.970Z,38.73
2023-04-27T02:36:42.237Z,38.58
2023-04-27T02:39:11.140Z,38.70
2023-04-27T02:41:39.703Z,38.71
2023-04-27T02:44:09.281Z,39.04
2023-04-27T02:46:37.689Z,39.11
2023-04-27T02:49:06.222Z,38.97
2023-04-27T02:51:35.173Z,38.95
2023-04-27T02:54:03.921Z,39.21
2023-04-27T02:56:32.351Z,39.32
2023-04-27T02:59:00.914Z,39.18
2023-04-27T03:01:29.135Z,39.33
2023-04-27T03:03:57.779Z,39.03
2023-04-27T03:06:26.209Z,39.41
2023-04-27T03:08:54.669Z,39.04
2023-04-27T03:11:22.806Z,39.32
2023-04-27T03:13:52.340Z,39.25
2023-04-27T03:16:20.585Z,39.42
2023-04-27T03:18:50.334Z,39.42
2023-04-27T03:21:18.519Z,39.35
2023-04-27T03:23:51.757Z,39.56
2023-04-27T03:26:20.850Z,39.45
2023-04-27T03:28:49.321Z,39.46
2023-04-27T03:31:17.640Z,39.46
2023-04-27T03:33:47.323Z,39.63
2023-04-27T03:36:16.622Z,39.74
2023-04-27T03:38:45.104Z,39.67
2023-04-27T03:41:13.287Z,39.64
2023-04-27T03:43:41.689Z,39.53
2023-04-27T03:46:09.973Z,39.58
2023-04-27T03:48:40.693Z,39.37
2023-04-27T03:51:09.258Z,39.55
2023-04-27T03:53:39.120Z,39.47
2023-04-27T03:56:08.912Z,39.54
2023-04-27T03:58:37.446Z,39.24
2023-04-27T04:01:28.541Z,39.50
2023-04-27T04:03:57.148Z,39.30
2023-04-27T04:06:26.253Z,39.47
2023-04-27T04:08:54.986Z,39.12
2023-04-27T04:11:23.288Z,39.01
2023-04-27T04:13:56.357Z,38.92
2023-04-27T04:16:24.804Z,38.79
2023-04-27T04:18:55.028Z,39.20
2023-04-27T04:21:23.352Z,38.96
2023-04-27T04:23:53.071Z,38.82
2023-04-27T04:26:23.614Z,38.97
2023-04-27T04:28:52.586Z,38.84
2023-04-27T04:31:21.906Z,38.89
2023-04-27T04:33:52.096Z,39.00
2023-04-27T04:36:20.204Z,39.11
2023-04-27T04:38:55.302Z,38.90
2023-04-27T04:41:24.013Z,39.17
2023-04-27T04:43:53.394Z,39.02
2023-04-27T04:46:22.457Z,39.20
2023-04-27T04:48:54.537Z,39.14
2023-04-27T04:51:23.140Z,39.20
2023-04-27T04:53:52.815Z,39.17
2023-04-27T04:56:21.449Z,39.17
2023-04-27T04:58:49.771Z,39.37
2023-04-27T05:01:17.986Z,39.05
2023-04-27T05:03:46.546Z,39.32
2023-04-27T05:06:14.626Z,39.38
2023-04-27T05:08:42.921Z,39.30
2023-04-27T05:11:11.603Z,39.42
2023-04-27T05:13:40.582Z,39.40
2023-04-27T05:16:08.954Z,39.56
2023-04-27T05:18:37.478Z,39.59
2023-04-27T05:21:05.637Z,39.53
2023-04-27T05:23:35.044Z,39.55
2023-04-27T05:26:11.802Z,39.64
2023-04-27T05:28:40.659Z,39.44
2023-04-27T05:31:08.950Z,39.73
2023-04-27T05:33:37.377Z,39.71
2023-04-27T05:36:05.877Z,39.70
2023-04-27T05:38:36.373Z,39.40
2023-04-27T05:41:04.408Z,40.00
2023-04-27T05:43:32.785Z,40.18
2023-04-27T05:46:01.331Z,40.47
2023-04-27T05:48:31.787Z,40.57
2023-04-27T05:51:03.719Z,40.35
2023-04-27T05:53:34.533Z,39.73
2023-04-27T05:56:04.795Z,40.24
2023-04-27T05:58:33.589Z,40.17
2023-04-27T06:01:01.905Z,40.62
2023-04-27T06:03:31.421Z,40.88
2023-04-27T06:06:01.113Z,40.99
2023-04-27T06:08:30.896Z,40.41
2023-04-27T06:10:58.930Z,40.05
2023-04-27T06:13:28.722Z,40.25
2023-04-27T06:15:56.759Z,40.13
2023-04-27T06:18:25.271Z,39.51
2023-04-27T06:20:53.333Z,39.17
2023-04-27T06:23:21.700Z,39.47
2023-04-27T06:25:49.851Z,39.56
2023-04-27T06:28:18.179Z,39.59
2023-04-27T06:30:46.334Z,39.72
2023-04-27T06:33:14.735Z,39.63
2023-04-27T06:35:45.147Z,39.88
2023-04-27T06:38:15.902Z,39.79
2023-04-27T06:40:45.286Z,39.73
2023-04-27T06:43:13.583Z,39.53
2023-04-27T06:45:42.961Z,39.44
2023-04-27T06:48:11.584Z,39.61
2023-04-27T06:50:39.923Z,39.61
2023-04-27T06:53:08.478Z,39.67
2023-04-27T06:55:36.623Z,39.48
2023-04-27T06:58:05.121Z,39.68
2023-04-27T07:00:33.073Z,39.36
2023-04-27T07:03:02.829Z,39.70
2023-04-27T07:05:31.182Z,39.66
2023-04-27T07:08:00.899Z,39.51
2023-04-27T07:10:31.457Z,39.60
2023-04-27T07:13:00.996Z,39.56
2023-04-27T07:15:29.206Z,39.05
2023-04-27T07:17:57.654Z,38.01
2023-04-27T07:20:25.911Z,37.74
2023-04-27T07:22:54.354Z,37.73
2023-04-27T07:25:22.765Z,37.97
2023-04-27T07:27:51.266Z,37.90
2023-04-27T07:30:19.366Z,37.79
2023-04-27T07:32:48.562Z,38.10
2023-04-27T07:35:16.756Z,37.82
2023-04-27T07:37:46.005Z,38.04
2023-04-27T07:40:17.029Z,37.96
2023-04-27T07:42:48.325Z,37.67
2023-04-27T07:45:18.188Z,37.64
2023-04-27T07:47:46.747Z,37.59
2023-04-27T07:50:17.955Z,37.36
2023-04-27T07:52:46.337Z,37.37
2023-04-27T07:55:14.335Z,36.89
2023-04-27T07:57:42.728Z,36.42
2023-04-27T08:00:11.733Z,36.76
2023-04-27T08:02:43.113Z,36.36
2023-04-27T08:05:11.826Z,36.15
2023-04-27T08:07:44.638Z,35.93
2023-04-27T08:10:13.759Z,33.88
2023-04-27T08:12:42.087Z,33.80
2023-04-27T08:15:11.250Z,33.83
2023-04-27T08:17:42.151Z,33.17
2023-04-27T08:20:14.196Z,33.28
2023-04-27T08:22:43.041Z,33.19
2023-04-27T08:25:11.130Z,33.27
2023-04-27T08:27:40.464Z,33.10
2023-04-27T08:30:09.067Z,32.79
2023-04-27T08:32:37.419Z,32.56
2023-04-27T08:35:05.991Z,31.00
2023-04-27T08:37:34.312Z,31.11
2023-04-27T08:40:06.165Z,31.66
2023-04-27T08:42:34.542Z,30.40
2023-04-27T08:45:02.830Z,31.29
2023-04-27T08:47:41.757Z,30.21
2023-04-27T08:50:12.134Z,30.14
2023-04-27T08:52:40.548Z,30.33
2023-04-27T08:55:08.804Z,30.67
2023-04-27T08:57:37.231Z,30.61
2023-04-27T09:00:13.744Z,30.61
2023-04-27T09:02:48.890Z,30.71
2023-04-27T09:05:21.413Z,30.57
2023-04-27T09:08:05.957Z,31.50
2023-04-27T09:10:47.471Z,29.68
2023-04-27T09:13:17.374Z,30.03
2023-04-27T09:15:48.891Z,30.11
2023-04-27T09:18:22.159Z,30.42
2023-04-27T09:20:51.962Z,30.28
2023-04-27T09:23:31.862Z,30.58
2023-04-27T09:26:03.736Z,30.39
2023-04-27T09:28:34.380Z,30.59
2023-04-27T09:31:04.227Z,30.62
2023-04-27T09:33:36.187Z,30.62
2023-04-27T09:36:06.702Z,30.20
2023-04-27T09:38:35.230Z,30.80
2023-04-27T09:41:03.524Z,30.62
2023-04-27T09:43:32.320Z,30.45
2023-04-27T09:46:00.362Z,30.50
2023-04-27T09:48:29.469Z,30.58
2023-04-27T09:50:57.491Z,31.32
2023-04-27T09:53:42.026Z,31.28
2023-04-27T09:56:28.564Z,31.63
2023-04-27T09:59:30.833Z,31.69
2023-04-27T10:02:07.321Z,31.26
2023-04-27T10:05:03.470Z,31.76
2023-04-27T10:07:32.772Z,31.97
2023-04-27T10:10:02.578Z,32.06
2023-04-27T10:12:34.798Z,31.88
2023-04-27T10:15:18.199Z,31.91
2023-04-27T10:17:51.296Z,32.13
2023-04-27T10:20:33.335Z,32.09
2023-04-27T10:23:01.410Z,32.19
2023-04-27T10:25:38.711Z,32.76
2023-04-27T10:28:08.524Z,31.21
2023-04-27T10:30:38.940Z,30.70
2023-04-27T10:33:08.609Z,30.26
2023-04-27T10:35:44.522Z,30.32
2023-04-27T10:38:19.741Z,31.02
2023-04-27T10:41:05.299Z,31.09
2023-04-27T10:43:36.117Z,30.64
2023-04-27T10:46:12.383Z,30.85
2023-04-27T10:48:43.670Z,29.49
2023-04-27T10:51:16.549Z,30.62
2023-04-27T10:53:44.964Z,29.97
2023-04-27T10:56:13.155Z,29.90
2023-04-27T10:58:48.926Z,29.88
2023-04-27T11:01:27.850Z,30.12
2023-04-27T11:03:59.089Z,30.17
2023-04-27T11:06:28.754Z,30.05
2023-04-27T11:08:57.300Z,29.70
2023-04-27T11:11:26.753Z,29.19
2023-04-27T11:13:56.201Z,29.65
2023-04-27T11:16:24.667Z,29.73
2023-04-27T11:18:53.047Z,29.79
2023-04-27T11:21:22.497Z,30.10
2023-04-27T11:23:50.804Z,30.49
2023-04-27T11:26:21.559Z,30.58
2023-04-27T11:29:10.454Z,30.55
2023-04-27T11:31:51.553Z,30.40
2023-04-27T11:34:24.342Z,30.24
2023-04-27T11:37:17.198Z,30.39
2023-04-27T11:39:46.712Z,30.97
2023-04-27T11:42:21.090Z,31.32
2023-04-27T11:44:54.526Z,31.18
2023-04-27T11:47:23.742Z,31.25
2023-04-27T11:49:53.101Z,31.04
2023-04-27T11:52:22.310Z,31.37
2023-04-27T11:54:57.368Z,31.83
2023-04-27T11:57:29.444Z,32.08
2023-04-27T12:00:01.621Z,32.54
2023-04-27T12:02:32.361Z,32.73
2023-04-27T12:05:01.131Z,32.67
2023-04-27T12:07:29.402Z,32.59
2023-04-27T12:09:59.461Z,33.04
2023-04-27T12:12:28.834Z,33.22
2023-04-27T12:14:58.153Z,33.02
2023-04-27T12:17:26.353Z,33.16
2023-04-27T12:19:54.670Z,33.37
2023-04-27T12:22:23.506Z,33.58
2023-04-27T12:24:51.938Z,33.56
2023-04-27T12:27:20.124Z,33.69
2023-04-27T12:29:48.524Z,33.43
2023-04-27T12:32:16.472Z,33.66
2023-04-27T12:34:45.225Z,33.84
2023-04-27T12:37:14.188Z,34.29
2023-04-27T12:39:43.577Z,34.15
2023-04-27T12:42:11.927Z,34.05
2023-04-27T12:44:40.257Z,33.79
2023-04-27T12:47:08.364Z,33.64
2023-04-27T12:49:36.940Z,33.65
2023-04-27T12:52:05.174Z,33.84
2023-04-27T12:54:33.514Z,33.54
2023-04-27T12:57:06.386Z,34.21
2023-04-27T12:59:35.479Z,34.06
2023-04-27T13:02:04.264Z,33.97
2023-04-27T13:04:32.766Z,33.97
2023-04-27T13:07:01.197Z,34.01
2023-04-27T13:09:29.596Z,33.62
2023-04-27T13:11:59.279Z,33.79
2023-04-27T13:14:30.414Z,34.22
2023-04-27T13:16:58.464Z,33.86
2023-04-27T13:19:26.948Z,33.70
2023-04-27T13:21:55.025Z,33.67
2023-04-27T13:24:24.717Z,33.18
2023-04-27T13:26:52.908Z,33.51
2023-04-27T13:29:24.644Z,32.84
2023-04-27T13:31:52.860Z,32.82
2023-04-27T13:34:21.528Z,32.54
2023-04-27T13:36:49.807Z,32.90
2023-04-27T13:39:18.276Z,32.97
2023-04-27T13:41:46.430Z,33.00
2023-04-27T13:44:16.488Z,33.21
2023-04-27T13:46:44.758Z,33.23
2023-04-27T13:49:13.145Z,33.63
2023-04-27T13:51:41.192Z,34.03
2023-04-27T13:54:09.430Z,34.18
2023-04-27T13:56:38.623Z,34.08
2023-04-27T13:59:07.064Z,34.09
2023-04-27T14:01:35.249Z,33.99
2023-04-27T14:04:03.805Z,34.18
2023-04-27T14:06:32.265Z,34.48
2023-04-27T14:09:00.684Z,34.47
2023-04-27T14:11:28.879Z,34.59
2023-04-27T14:13:58.396Z,34.29
2023-04-27T14:16:26.504Z,34.16
2023-04-27T14:18:56.386Z,34.22
2023-04-27T14:21:24.753Z,34.66
2023-04-27T14:23:54.195Z,34.80
2023-04-27T14:26:22.197Z,34.59
2023-04-27T14:28:51.276Z,34.87
2023-04-27T14:31:19.379Z,34.62
2023-04-27T14:33:48.227Z,34.81
2023-04-27T14:36:18.616Z,35.07
2023-04-27T14:38:47.584Z,35.09
2023-04-27T14:41:15.648Z,35.35
2023-04-27T14:43:45.328Z,35.21
2023-04-27T14:48:48.393Z,35.12
2023-04-27T14:51:16.855Z,35.12
2023-04-27T14:53:46.535Z,35.32
2023-04-27T14:56:14.910Z,35.27
2023-04-27T14:58:43.254Z,35.26
2023-04-27T15:01:11.474Z,35.46
2023-04-27T15:03:39.958Z,35.54
2023-04-27T15:06:08.362Z,35.64
2023-04-27T15:08:36.612Z,35.30
2023-04-27T15:11:04.842Z,35.37
2023-04-27T15:13:33.213Z,35.74
2023-04-27T15:16:02.226Z,35.81
2023-04-27T15:18:31.240Z,35.84
2023-04-27T15:21:00.342Z,35.65
2023-04-27T15:23:28.724Z,35.85
2023-04-27T15:25:58.058Z,35.80
2023-04-27T15:28:27.602Z,36.15
2023-04-27T15:30:56.327Z,35.90
2023-04-27T15:33:24.888Z,36.19
2023-04-27T15:35:52.905Z,36.14
2023-04-27T15:38:21.532Z,35.98
2023-04-27T15:40:49.507Z,36.29
2023-04-27T15:43:17.927Z,36.08
2023-04-27T15:45:46.119Z,36.39
2023-04-27T15:48:14.534Z,36.24
2023-04-27T15:50:42.632Z,36.43
2023-04-27T15:53:11.055Z,36.44
2023-04-27T15:55:39.133Z,36.43
2023-04-27T15:58:07.486Z,36.44
2023-04-27T16:00:36.013Z,36.44
2023-04-27T16:03:51.828Z,35.80
2023-04-27T16:06:20.027Z,35.83
2023-04-27T16:08:48.545Z,35.58
2023-04-27T16:11:19.938Z,35.84
2023-04-27T16:13:48.539Z,35.62
2023-04-27T16:16:17.383Z,35.50
2023-04-27T16:18:45.918Z,35.86
2023-04-27T16:21:13.881Z,36.11
2023-04-27T16:23:43.175Z,35.86
2023-04-27T16:26:11.469Z,36.05
2023-04-27T16:28:41.345Z,35.67
2023-04-27T16:31:09.436Z,36.00
2023-04-27T16:33:37.726Z,36.00
2023-04-27T16:36:06.063Z,36.20
2023-04-27T16:38:34.420Z,36.30
2023-04-27T16:41:02.528Z,36.41
2023-04-27T16:43:31.776Z,36.37
2023-04-27T16:45:59.836Z,36.38
2023-04-27T16:48:28.509Z,36.45
2023-04-27T16:50:56.767Z,36.29
2023-04-27T16:53:26.943Z,36.57
2023-04-27T16:55:54.900Z,36.77
2023-04-27T16:58:24.291Z,36.90
2023-04-27T17:00:52.396Z,37.03
2023-04-27T17:03:21.075Z,37.22
2023-04-27T17:05:49.084Z,37.33
2023-04-27T17:08:17.392Z,37.62
2023-04-27T17:10:45.630Z,38.17
2023-04-27T17:13:16.090Z,37.98
2023-04-27T17:15:44.121Z,38.15
2023-04-27T17:18:13.508Z,38.35
2023-04-27T17:20:42.286Z,38.19
2023-04-27T17:23:10.952Z,38.42
2023-04-27T17:25:38.912Z,38.58
2023-04-27T17:28:08.072Z,38.71
2023-04-27T17:30:36.032Z,38.98
2023-04-27T17:33:04.524Z,38.99
2023-04-27T17:35:32.607Z,39.00
2023-04-27T17:38:01.257Z,38.64
2023-04-27T17:40:29.686Z,39.17
2023-04-27T17:42:58.125Z,38.98
2023-04-27T17:45:28.784Z,38.40
2023-04-27T17:47:57.226Z,37.57
2023-04-27T17:50:26.315Z,37.06
2023-04-27T17:52:55.841Z,36.12
2023-04-27T17:55:24.368Z,35.89
2023-04-27T17:57:52.698Z,35.75
2023-04-27T18:00:23.278Z,35.20
2023-04-27T18:02:51.973Z,35.47
2023-04-27T18:05:20.216Z,35.69
2023-04-27T18:07:50.246Z,35.71
2023-04-27T18:10:18.290Z,35.83
2023-04-27T18:12:46.588Z,35.71
2023-04-27T18:15:14.735Z,35.81
2023-04-27T18:17:43.058Z,35.60
2023-04-27T18:20:11.772Z,35.83
2023-04-27T18:22:40.365Z,35.75
2023-04-27T18:25:10.101Z,36.18
2023-04-27T18:27:38.602Z,36.05
2023-04-27T18:30:08.674Z,35.96
2023-04-27T18:32:37.929Z,36.03
2023-04-27T18:35:06.564Z,36.15
2023-04-27T18:37:34.938Z,36.28
2023-04-27T18:40:03.971Z,36.23
2023-04-27T18:42:32.534Z,36.24
2023-04-27T18:45:02.258Z,36.33
2023-04-27T18:47:30.586Z,36.26
2023-04-27T18:49:58.573Z,36.39
2023-04-27T18:52:26.890Z,36.66
2023-04-27T18:54:55.071Z,36.32
2023-04-27T18:57:23.426Z,36.35
2023-04-27T18:59:51.533Z,36.67
2023-04-27T19:02:20.127Z,36.32
2023-04-27T19:04:52.826Z,36.34
2023-04-27T19:07:25.518Z,36.59
2023-04-27T19:09:56.507Z,36.74
2023-04-27T19:12:25.042Z,37.42
2023-04-27T19:14:53.298Z,37.60
2023-04-27T19:17:21.885Z,37.71
2023-04-27T19:19:50.255Z,38.33
2023-04-27T19:22:18.695Z,38.24
2023-04-27T19:24:46.936Z,38.30
2023-04-27T19:27:15.311Z,38.03
2023-04-27T19:29:57.424Z,38.33
2023-04-27T19:32:27.866Z,38.05
2023-04-27T19:34:58.247Z,37.90
2023-04-27T19:37:27.602Z,37.58
2023-04-27T19:39:55.801Z,37.70
2023-04-27T19:42:25.364Z,37.40
2023-04-27T19:44:53.393Z,37.32
2023-04-27T19:47:24.039Z,37.41
2023-04-27T19:49:52.304Z,37.61
2023-04-27T19:52:20.692Z,37.22
2023-04-27T19:54:54.833Z,36.83
2023-04-27T19:57:23.260Z,36.92
2023-04-27T19:59:51.457Z,36.90
2023-04-27T20:02:19.806Z,36.88
2023-04-27T20:04:48.128Z,36.28
2023-04-27T20:07:16.660Z,36.51
2023-04-27T20:09:44.855Z,36.95
2023-04-27T20:12:28.925Z,36.96
2023-04-27T20:15:01.377Z,36.66
2023-04-27T20:17:30.266Z,36.79
2023-04-27T20:19:58.306Z,36.45
2023-04-27T20:22:27.659Z,37.15
2023-04-27T20:24:59.388Z,36.80
2023-04-27T20:27:27.895Z,36.97
2023-04-27T20:29:56.294Z,37.10
2023-04-27T20:32:25.774Z,36.85
2023-04-27T20:34:53.741Z,37.05
2023-04-27T20:37:23.971Z,36.37
2023-04-27T20:39:52.372Z,36.86
2023-04-27T20:42:21.113Z,36.44
2023-04-27T20:44:49.602Z,36.25
2023-04-27T20:47:17.935Z,36.37
2023-04-27T20:49:45.922Z,36.52
2023-04-27T20:52:14.371Z,36.78
2023-04-27T20:54:42.549Z,36.12
2023-04-27T20:57:14.308Z,36.15
2023-04-27T20:59:42.680Z,36.33
2023-04-27T21:02:11.147Z,35.79
2023-04-27T21:04:42.375Z,35.95
2023-04-27T21:07:11.565Z,35.95
2023-04-27T21:09:39.692Z,36.13
2023-04-27T21:12:08.936Z,35.52
2023-04-27T21:14:37.632Z,35.63
2023-04-27T21:17:06.067Z,35.48
2023-04-27T21:19:34.110Z,35.44
2023-04-27T21:22:03.659Z,35.99
2023-04-27T21:24:31.700Z,36.01
2023-04-27T21:27:00.072Z,35.65
2023-04-27T21:29:28.221Z,35.41
2023-04-27T21:31:56.605Z,35.66
2023-04-27T21:34:24.657Z,35.52
2023-04-27T21:36:53.217Z,35.66
2023-04-27T21:39:21.367Z,35.29
2023-04-27T21:41:49.793Z,35.32
2023-04-27T21:44:18.124Z,35.06
2023-04-27T21:46:47.584Z,35.65
2023-04-27T21:49:15.977Z,35.21
2023-04-27T21:51:45.337Z,35.56
2023-04-27T21:54:13.737Z,35.16
2023-04-27T21:56:42.814Z,35.21
2023-04-27T21:59:10.797Z,35.86
2023-04-27T22:01:39.271Z,35.57
2023-04-27T22:04:07.493Z,35.72
2023-04-27T22:06:36.050Z,35.12
2023-04-27T22:09:06.513Z,35.54
2023-04-27T22:11:36.503Z,35.42
2023-04-27T22:14:04.724Z,35.81
2023-04-27T22:16:33.389Z,35.39
2023-04-27T22:19:01.563Z,35.50
2023-04-27T22:21:31.456Z,35.96
2023-04-27T22:23:59.689Z,35.89
2023-04-27T22:26:29.310Z,35.71
2023-04-27T22:28:57.366Z,36.25
2023-04-27T22:31:25.948Z,36.04
2023-04-27T22:33:54.185Z,36.41
2023-04-27T22:36:24.475Z,36.47
2023-04-27T22:38:52.603Z,36.80
2023-04-27T22:41:21.358Z,36.56
2023-04-27T22:43:49.364Z,36.63
2023-04-27T22:46:18.665Z,36.75
2023-04-27T22:48:46.605Z,36.71
2023-04-27T22:51:15.052Z,36.83
2023-04-27T22:53:43.110Z,37.05
2023-04-27T22:56:11.487Z,36.61
2023-04-27T22:58:39.451Z,37.08
2023-04-27T23:01:07.771Z,37.07
2023-04-27T23:03:36.108Z,36.72
2023-04-27T23:06:07.304Z,36.69
2023-04-27T23:08:37.596Z,36.38
2023-04-27T23:11:05.913Z,36.47
2023-04-27T23:13:34.316Z,36.33
2023-04-27T23:16:02.620Z,35.98
2023-04-27T23:18:30.715Z,35.49
2023-04-27T23:20:59.043Z,35.66
2023-04-27T23:23:27.096Z,35.59
2023-04-27T23:25:55.844Z,35.44
2023-04-27T23:28:23.791Z,35.27
2023-04-27T23:30:54.119Z,35.03
2023-04-27T23:33:22.337Z,34.93
2023-04-27T23:35:50.999Z,34.84
2023-04-27T23:38:19.046Z,34.52
2023-04-27T23:40:47.340Z,34.49
2023-04-27T23:43:15.389Z,34.30
2023-04-27T23:45:51.162Z,34.82
2023-04-27T23:48:19.798Z,34.72
2023-04-27T23:50:48.114Z,34.40
2023-04-27T23:53:16.118Z,34.54
2023-04-27T23:55:44.486Z,34.63
2023-04-27T23:58:12.439Z,34.80
